createdAt,value
2022-12-06T00:00:35.634Z,41.20
2022-12-06T00:03:05.414Z,40.97
2022-12-06T00:05:46.016Z,42.90
2022-12-06T00:08:16.612Z,38.13
2022-12-06T00:10:47.147Z,38.47
2022-12-06T00:13:16.156Z,40.05
2022-12-06T00:15:43.454Z,41.95
2022-12-06T00:18:11.480Z,43.70
2022-12-06T00:20:39.460Z,41.20
2022-12-06T00:23:07.509Z,42.03
2022-12-06T00:25:38.473Z,39.65
2022-12-06T00:28:06.523Z,41.15
2022-12-06T00:30:35.837Z,41.42
2022-12-06T00:33:07.223Z,40.22
2022-12-06T00:35:35.833Z,39.20
2022-12-06T00:38:06.029Z,43.67
2022-12-06T00:40:36.915Z,40.50
2022-12-06T00:43:05.189Z,38.97
2022-12-06T00:45:33.260Z,39.25
2022-12-06T00:48:00.911Z,39.97
2022-12-06T00:50:29.720Z,38.67
2022-12-06T00:52:57.728Z,41.88
2022-12-06T00:55:25.752Z,38.70
2022-12-06T00:57:55.876Z,38.17
2022-12-06T01:00:26.008Z,39.90
2022-12-06T01:02:59.030Z,41.28
2022-12-06T01:05:28.298Z,42.53
2022-12-06T01:07:57.454Z,42.20
2022-12-06T01:10:26.437Z,41.95
2022-12-06T01:12:54.401Z,40.33
2022-12-06T01:15:27.581Z,42.38
2022-12-06T01:17:55.672Z,44.03
2022-12-06T01:20:24.250Z,43.15
2022-12-06T01:22:54.791Z,42.63
2022-12-06T01:25:25.874Z,44.47
2022-12-06T01:27:59.434Z,41.65
2022-12-06T01:30:27.686Z,42.40
2022-12-06T01:32:56.361Z,41.80
2022-12-06T01:35:27.552Z,41.90
2022-12-06T01:38:06.001Z,42.97
2022-12-06T01:40:47.183Z,39.88
2022-12-06T01:43:41.066Z,40.75
2022-12-06T01:46:41.977Z,39.78
2022-12-06T01:49:21.496Z,38.38
2022-12-06T01:52:05.888Z,36.67
2022-12-06T01:54:34.122Z,38.80
2022-12-06T01:57:05.709Z,38.38
2022-12-06T01:59:37.288Z,42.78
2022-12-06T02:02:08.684Z,39.13
2022-12-06T02:04:38.048Z,39.53
2022-12-06T02:07:06.454Z,38.85
2022-12-06T02:09:35.323Z,39.72
2022-12-06T02:12:03.282Z,41.88
2022-12-06T02:14:36.929Z,38.85
2022-12-06T02:17:47.633Z,41.47
2022-12-06T02:20:57.776Z,39.63
2022-12-06T02:24:04.155Z,42.45
2022-12-06T02:26:39.912Z,42.50
2022-12-06T02:29:29.126Z,41.90
2022-12-06T02:32:21.950Z,42.28
2022-12-06T02:35:06.338Z,41.85
2022-12-06T02:37:57.106Z,41.28
2022-12-06T02:40:33.073Z,44.00
2022-12-06T02:43:20.284Z,41.53
2022-12-06T02:45:56.773Z,41.03
2022-12-06T02:48:27.900Z,44.50
2022-12-06T02:51:16.576Z,43.38
2022-12-06T02:53:52.213Z,42.28
2022-12-06T02:56:20.376Z,43.03
2022-12-06T02:58:48.518Z,42.65
2022-12-06T03:01:20.859Z,43.90
2022-12-06T03:07:01.155Z,39.53
2022-12-06T03:10:03.507Z,43.47
2022-12-06T03:12:53.056Z,41.28
2022-12-06T03:16:09.895Z,41.50
2022-12-06T03:18:54.447Z,41.40
2022-12-06T03:21:30.859Z,41.25
2022-12-06T03:24:02.555Z,41.85
2022-12-06T03:26:44.021Z,42.17
2022-12-06T03:29:15.959Z,41.92
2022-12-06T03:31:46.605Z,41.10
2022-12-06T03:34:32.289Z,40.83
2022-12-06T03:37:10.018Z,41.08
2022-12-06T03:40:03.414Z,39.40
2022-12-06T03:42:35.457Z,39.60
2022-12-06T03:45:05.767Z,41.92
2022-12-06T03:48:03.515Z,43.20
2022-12-06T03:50:41.674Z,43.38
2022-12-06T03:53:09.943Z,42.08
2022-12-06T03:55:37.610Z,45.95
2022-12-06T03:58:05.562Z,45.33
2022-12-06T04:00:33.133Z,44.17
2022-12-06T04:03:02.823Z,43.42
2022-12-06T04:05:36.068Z,44.65
2022-12-06T04:10:32.065Z,43.70
2022-12-06T04:13:02.884Z,42.83
2022-12-06T04:15:45.161Z,42.50
2022-12-06T04:18:14.753Z,42.53
2022-12-06T04:21:16.526Z,42.03
2022-12-06T04:23:49.528Z,41.40
2022-12-06T04:26:21.270Z,44.13
2022-12-06T04:29:09.048Z,44.38
2022-12-06T04:31:57.048Z,42.15
2022-12-06T04:34:45.991Z,44.08
2022-12-06T04:37:32.131Z,42.35
2022-12-06T04:39:59.718Z,44.03
2022-12-06T04:42:48.376Z,47.53
2022-12-06T04:45:16.045Z,45.83
2022-12-06T04:47:43.326Z,45.63
2022-12-06T04:50:11.177Z,47.67
2022-12-06T04:52:38.827Z,50.25
2022-12-06T04:55:06.564Z,48.70
2022-12-06T04:57:36.757Z,47.45
2022-12-06T05:00:08.108Z,46.15
2022-12-06T05:02:35.534Z,47.85
2022-12-06T05:05:05.412Z,48.53
2022-12-06T05:07:35.556Z,48.50
2022-12-06T05:10:03.227Z,46.78
2022-12-06T05:12:37.776Z,49.35
2022-12-06T05:15:05.670Z,48.78
2022-12-06T05:17:33.264Z,48.25
2022-12-06T05:20:00.752Z,51.45
2022-12-06T05:22:33.324Z,50.40
2022-12-06T05:25:03.010Z,50.25
2022-12-06T05:27:35.698Z,49.95
2022-12-06T05:30:03.701Z,48.30
2022-12-06T05:32:33.094Z,45.10
2022-12-06T05:35:00.551Z,44.88
2022-12-06T05:37:30.160Z,46.30
2022-12-06T05:39:59.718Z,43.58
2022-12-06T05:42:28.423Z,45.00
2022-12-06T05:44:55.673Z,44.40
2022-12-06T05:47:22.922Z,47.40
2022-12-06T05:49:51.305Z,48.25
2022-12-06T05:52:18.505Z,45.55
2022-12-06T05:54:45.727Z,45.08
2022-12-06T05:57:15.050Z,46.15
2022-12-06T05:59:42.201Z,46.42
2022-12-06T06:02:09.687Z,46.85
2022-12-06T06:04:36.993Z,48.83
2022-12-06T06:07:05.510Z,48.53
2022-12-06T06:09:32.709Z,48.60
2022-12-06T06:12:00.106Z,48.00
2022-12-06T06:14:27.338Z,47.63
2022-12-06T06:16:59.332Z,48.75
2022-12-06T06:19:26.627Z,48.38
2022-12-06T06:21:53.730Z,48.33
2022-12-06T06:24:20.924Z,46.22
2022-12-06T06:26:50.120Z,47.50
2022-12-06T06:29:17.213Z,47.25
2022-12-06T06:31:46.874Z,45.70
2022-12-06T06:34:24.881Z,45.30
2022-12-06T06:36:52.753Z,49.97
2022-12-06T06:39:20.012Z,49.38
2022-12-06T06:41:47.203Z,48.55
2022-12-06T06:44:16.711Z,50.05
2022-12-06T06:46:44.183Z,48.80
2022-12-06T06:49:15.822Z,48.58
2022-12-06T06:51:43.486Z,46.58
2022-12-06T06:54:11.073Z,49.67
2022-12-06T06:56:40.603Z,49.90
2022-12-06T06:59:12.930Z,51.67
2022-12-06T07:01:40.203Z,53.47
2022-12-06T07:04:07.336Z,51.10
2022-12-06T07:06:34.444Z,50.05
2022-12-06T07:09:01.589Z,49.13
2022-12-06T07:11:31.293Z,49.33
2022-12-06T07:14:01.126Z,48.88
2022-12-06T07:16:28.585Z,50.25
2022-12-06T07:18:55.955Z,52.25
2022-12-06T07:21:25.129Z,51.50
2022-12-06T07:23:52.504Z,51.83
2022-12-06T07:26:23.128Z,52.80
2022-12-06T07:28:53.814Z,49.00
2022-12-06T07:31:28.540Z,51.08
2022-12-06T07:33:59.360Z,49.30
2022-12-06T07:36:35.921Z,36.23
2022-12-06T07:39:18.265Z,37.32
2022-12-06T07:42:04.232Z,48.47
2022-12-06T07:44:50.251Z,49.17
2022-12-06T07:47:17.354Z,47.53
2022-12-06T07:49:45.718Z,47.15
2022-12-06T07:52:12.981Z,46.55
2022-12-06T07:54:41.687Z,46.20
2022-12-06T07:57:11.149Z,45.90
2022-12-06T07:59:40.681Z,45.03
2022-12-06T08:02:20.198Z,44.38
2022-12-06T08:04:47.621Z,46.25
2022-12-06T08:07:15.404Z,51.38
2022-12-06T08:09:45.705Z,48.92
2022-12-06T08:12:12.974Z,49.28
2022-12-06T08:14:42.651Z,55.72
2022-12-06T08:17:09.863Z,54.75
2022-12-06T08:19:36.954Z,56.03
2022-12-06T08:22:05.110Z,53.42
2022-12-06T08:24:32.260Z,54.00
2022-12-06T08:27:00.451Z,55.00
2022-12-06T08:29:27.589Z,54.88
2022-12-06T08:31:57.173Z,51.80
2022-12-06T08:34:24.313Z,50.75
2022-12-06T08:36:51.390Z,50.80
2022-12-06T08:39:18.815Z,52.67
2022-12-06T08:41:58.460Z,52.30
2022-12-06T08:44:28.010Z,53.28
2022-12-06T08:46:56.302Z,49.13
2022-12-06T08:49:25.395Z,49.55
2022-12-06T08:51:53.436Z,50.85
2022-12-06T08:54:24.366Z,50.50
2022-12-06T08:56:52.523Z,51.15
2022-12-06T08:59:20.635Z,50.88
2022-12-06T09:01:50.515Z,50.33
2022-12-06T09:04:18.021Z,50.13
2022-12-06T09:06:45.872Z,49.30
2022-12-06T09:09:17.857Z,46.58
2022-12-06T09:11:49.285Z,46.25
2022-12-06T09:14:22.054Z,46.78
2022-12-06T09:16:51.383Z,47.92
2022-12-06T09:19:24.067Z,51.63
2022-12-06T09:21:51.319Z,49.85
2022-12-06T09:24:19.778Z,48.88
2022-12-06T09:26:47.099Z,48.22
2022-12-06T09:29:18.843Z,48.38
2022-12-06T09:31:46.184Z,47.88
2022-12-06T09:34:14.130Z,47.25
2022-12-06T09:37:07.171Z,47.80
2022-12-06T09:39:40.465Z,49.05
2022-12-06T09:42:07.902Z,46.58
2022-12-06T09:45:28.703Z,46.25
2022-12-06T09:48:44.286Z,45.28
2022-12-06T09:52:08.445Z,45.65
2022-12-06T09:55:04.978Z,43.83
2022-12-06T09:57:44.193Z,42.92
2022-12-06T10:00:22.945Z,42.47
2022-12-06T10:03:46.374Z,43.53
2022-12-06T10:09:04.655Z,43.85
2022-12-06T10:11:34.603Z,43.08
2022-12-06T10:14:46.267Z,44.28
2022-12-06T10:17:30.739Z,43.25
2022-12-06T10:20:18.408Z,41.85
2022-12-06T10:23:10.754Z,43.78
2022-12-06T10:26:03.017Z,42.90
2022-12-06T10:28:54.952Z,48.67
2022-12-06T10:32:09.921Z,49.28
2022-12-06T10:34:59.922Z,47.92
2022-12-06T10:38:00.073Z,46.53
2022-12-06T10:40:46.390Z,46.42
2022-12-06T10:43:30.522Z,45.45
2022-12-06T10:46:35.791Z,45.17
2022-12-06T10:49:29.878Z,42.85
2022-12-06T10:52:21.933Z,41.25
2022-12-06T10:55:12.872Z,44.70
2022-12-06T10:57:59.270Z,41.38
2022-12-06T11:00:36.543Z,40.67
2022-12-06T11:03:27.513Z,41.03
2022-12-06T11:06:16.082Z,40.53
2022-12-06T11:08:50.824Z,42.03
2022-12-06T11:11:27.991Z,40.65
2022-12-06T11:14:03.847Z,40.50
2022-12-06T11:16:37.122Z,39.60
2022-12-06T11:19:38.792Z,41.15
2022-12-06T11:22:41.605Z,39.63
2022-12-06T11:28:44.108Z,39.38
2022-12-06T11:31:31.735Z,36.53
2022-12-06T11:34:02.372Z,39.47
2022-12-06T11:36:31.322Z,39.78
2022-12-06T11:38:59.950Z,39.17
2022-12-06T11:41:35.264Z,39.38
2022-12-06T11:44:03.699Z,41.50
2022-12-06T11:46:31.092Z,41.90
2022-12-06T11:49:17.410Z,42.40
2022-12-06T11:51:45.881Z,45.22
2022-12-06T11:54:33.871Z,42.45
2022-12-06T11:57:15.752Z,45.88
2022-12-06T12:00:15.787Z,43.35
2022-12-06T12:02:47.100Z,44.45
2022-12-06T12:05:19.810Z,46.83
2022-12-06T12:08:19.862Z,43.72
2022-12-06T12:10:58.122Z,43.15
2022-12-06T12:13:45.272Z,42.88
2022-12-06T12:16:46.801Z,41.92
2022-12-06T12:19:41.139Z,43.33
2022-12-06T12:22:42.940Z,46.83
2022-12-06T12:25:31.263Z,44.38
2022-12-06T12:28:01.408Z,38.05
2022-12-06T12:30:39.967Z,36.90
2022-12-06T12:33:07.249Z,34.00
2022-12-06T12:35:40.545Z,33.10
2022-12-06T12:38:11.782Z,32.22
2022-12-06T12:40:46.975Z,31.45
2022-12-06T12:43:15.925Z,30.10
2022-12-06T12:46:12.405Z,27.38
2022-12-06T12:48:43.129Z,30.02
2022-12-06T12:51:38.020Z,30.15
2022-12-06T12:54:28.782Z,29.85
2022-12-06T12:56:57.286Z,29.27
2022-12-06T12:59:27.927Z,27.88
2022-12-06T13:02:29.608Z,27.33
2022-12-06T13:05:32.453Z,28.67
2022-12-06T13:08:20.829Z,29.08
2022-12-06T13:10:58.498Z,31.83
2022-12-06T13:13:37.257Z,29.17
2022-12-06T13:16:16.628Z,31.73
2022-12-06T13:18:53.386Z,32.55
2022-12-06T13:21:34.620Z,34.95
2022-12-06T13:24:11.167Z,33.05
2022-12-06T13:27:10.377Z,32.75
2022-12-06T13:29:56.104Z,32.70
2022-12-06T13:32:34.853Z,35.92
2022-12-06T13:37:43.552Z,36.47
2022-12-06T13:40:33.461Z,34.80
2022-12-06T13:43:05.582Z,35.85
2022-12-06T13:45:48.447Z,34.55
2022-12-06T13:48:24.983Z,34.65
2022-12-06T13:51:00.113Z,34.17
2022-12-06T13:53:28.006Z,35.85
2022-12-06T13:56:30.352Z,37.03
2022-12-06T13:58:59.857Z,33.80
2022-12-06T14:01:46.400Z,31.90
2022-12-06T14:07:22.523Z,29.10
2022-12-06T14:09:50.841Z,28.48
2022-12-06T14:12:27.729Z,28.30
2022-12-06T14:15:03.750Z,28.67
2022-12-06T14:20:33.619Z,30.25
2022-12-06T14:23:00.709Z,30.88
2022-12-06T14:25:31.630Z,31.95
2022-12-06T14:28:13.735Z,32.58
2022-12-06T14:30:41.388Z,32.92
2022-12-06T14:33:39.318Z,34.10
2022-12-06T14:36:17.376Z,37.40
2022-12-06T14:38:53.979Z,38.22
2022-12-06T14:41:40.576Z,39.05
2022-12-06T14:44:18.895Z,40.33
2022-12-06T14:46:49.657Z,36.78
2022-12-06T14:49:39.928Z,40.13
2022-12-06T14:52:31.323Z,40.63
2022-12-06T14:55:19.572Z,39.58
2022-12-06T14:57:57.229Z,41.13
2022-12-06T15:00:38.306Z,40.08
2022-12-06T15:03:08.504Z,37.95
2022-12-06T15:05:39.819Z,40.45
2022-12-06T15:08:25.739Z,37.05
2022-12-06T15:11:03.780Z,35.50
2022-12-06T15:13:33.523Z,35.13
2022-12-06T15:16:09.834Z,37.45
2022-12-06T15:18:59.276Z,36.22
2022-12-06T15:21:26.452Z,37.40
2022-12-06T15:23:59.562Z,38.70
2022-12-06T15:26:26.628Z,43.17
2022-12-06T15:28:53.754Z,43.70
2022-12-06T15:31:28.397Z,44.05
2022-12-06T15:33:56.303Z,44.55
2022-12-06T15:36:27.828Z,44.92
2022-12-06T15:38:54.940Z,46.50
2022-12-06T15:41:27.142Z,49.90
2022-12-06T15:43:57.688Z,46.75
2022-12-06T15:46:29.868Z,44.13
2022-12-06T15:51:27.156Z,42.15
2022-12-06T15:53:57.494Z,43.00
2022-12-06T15:56:29.191Z,43.20
2022-12-06T15:58:56.484Z,43.75
2022-12-06T16:01:32.970Z,40.58
2022-12-06T16:04:00.669Z,40.83
2022-12-06T16:06:29.519Z,38.67
2022-12-06T16:08:59.797Z,35.45
2022-12-06T16:11:27.464Z,35.63
2022-12-06T16:13:54.762Z,35.70
2022-12-06T16:16:22.850Z,35.05
2022-12-06T16:18:51.160Z,34.60
2022-12-06T16:21:24.234Z,34.90
2022-12-06T16:24:14.912Z,31.60
2022-12-06T16:26:44.500Z,32.55
2022-12-06T16:29:25.292Z,34.28
2022-12-06T16:31:54.116Z,34.33
2022-12-06T16:34:21.375Z,32.58
2022-12-06T16:37:04.910Z,34.97
2022-12-06T16:39:34.150Z,35.15
2022-12-06T16:42:03.319Z,35.53
2022-12-06T16:44:30.413Z,34.55
2022-12-06T16:47:00.109Z,34.50
2022-12-06T16:49:45.759Z,32.63
2022-12-06T16:52:18.761Z,32.67
2022-12-06T16:54:48.111Z,32.45
2022-12-06T16:57:15.357Z,32.60
2022-12-06T16:59:43.178Z,32.90
2022-12-06T17:02:34.099Z,32.47
2022-12-06T17:05:06.503Z,33.33
2022-12-06T17:07:35.588Z,35.00
2022-12-06T17:10:03.181Z,33.88
2022-12-06T17:12:30.275Z,34.70
2022-12-06T17:14:59.123Z,34.88
2022-12-06T17:17:28.590Z,35.90
2022-12-06T17:19:56.401Z,36.75
2022-12-06T17:22:25.939Z,36.97
2022-12-06T17:24:53.902Z,35.60
2022-12-06T17:27:20.990Z,36.78
2022-12-06T17:29:50.074Z,37.42
2022-12-06T17:32:17.976Z,38.20
2022-12-06T17:34:45.181Z,40.28
2022-12-06T17:37:12.585Z,38.88
2022-12-06T17:39:41.941Z,37.70
2022-12-06T17:42:30.891Z,37.80
2022-12-06T17:44:58.046Z,39.25
2022-12-06T17:47:25.465Z,36.97
2022-12-06T17:49:56.453Z,36.95
2022-12-06T17:52:26.312Z,35.22
2022-12-06T17:54:53.665Z,34.92
2022-12-06T17:57:20.731Z,34.78
2022-12-06T17:59:48.636Z,33.65
2022-12-06T18:02:20.143Z,33.58
2022-12-06T18:04:48.298Z,33.42
2022-12-06T18:07:17.285Z,33.67
2022-12-06T18:09:45.282Z,31.60
2022-12-06T18:12:16.638Z,32.97
2022-12-06T18:14:45.220Z,32.10
2022-12-06T18:17:12.745Z,30.75
2022-12-06T18:19:41.006Z,31.27
2022-12-06T18:22:11.129Z,31.92
2022-12-06T18:24:38.258Z,30.27
2022-12-06T18:27:06.845Z,30.90
2022-12-06T18:29:39.022Z,30.80
2022-12-06T18:32:06.277Z,30.13
2022-12-06T18:34:35.982Z,29.38
2022-12-06T18:37:05.163Z,30.75
2022-12-06T18:39:34.414Z,30.35
2022-12-06T18:42:01.513Z,29.77
2022-12-06T18:44:28.703Z,28.20
2022-12-06T18:46:55.781Z,29.00
2022-12-06T18:49:24.222Z,29.48
2022-12-06T18:51:53.571Z,29.50
2022-12-06T18:54:21.668Z,28.35
2022-12-06T18:56:48.777Z,30.20
2022-12-06T18:59:15.926Z,29.42
2022-12-06T19:01:43.149Z,28.90
2022-12-06T19:04:16.537Z,28.65
2022-12-06T19:06:46.522Z,28.02
2022-12-06T19:09:16.051Z,28.55
2022-12-06T19:11:46.239Z,27.35
2022-12-06T19:14:14.633Z,26.80
2022-12-06T19:16:48.749Z,27.80
2022-12-06T19:19:20.695Z,27.17
2022-12-06T19:21:49.861Z,26.30
2022-12-06T19:24:23.157Z,25.42
2022-12-06T19:26:55.237Z,25.25
2022-12-06T19:29:22.310Z,25.90
2022-12-06T19:31:49.441Z,23.70
2022-12-06T19:34:21.629Z,21.70
2022-12-06T19:39:20.685Z,20.88
2022-12-06T19:42:06.664Z,20.52
2022-12-06T19:44:36.808Z,19.50
2022-12-06T19:47:04.275Z,18.85
2022-12-06T19:49:33.859Z,18.35
2022-12-06T19:52:01.519Z,17.48
2022-12-06T19:54:31.536Z,18.58
2022-12-06T19:57:03.246Z,18.05
2022-12-06T19:59:35.301Z,12.63
2022-12-06T20:02:04.216Z,17.02
2022-12-06T20:04:38.126Z,16.85
2022-12-06T20:07:05.655Z,17.58
2022-12-06T20:09:33.733Z,17.27
2022-12-06T20:12:04.096Z,17.48
2022-12-06T20:14:58.074Z,16.60
2022-12-06T20:17:25.141Z,16.05
2022-12-06T20:19:54.528Z,16.05
2022-12-06T20:22:22.854Z,16.02
2022-12-06T20:24:50.089Z,16.27
2022-12-06T20:27:18.276Z,14.73
2022-12-06T20:29:45.361Z,14.88
2022-12-06T20:32:12.594Z,15.60
2022-12-06T20:34:39.719Z,14.98
2022-12-06T20:37:07.478Z,15.27
2022-12-06T20:39:35.976Z,15.55
2022-12-06T20:42:06.110Z,16.25
2022-12-06T20:44:34.243Z,15.85
2022-12-06T20:47:03.724Z,16.17
2022-12-06T20:49:30.927Z,16.00
2022-12-06T20:51:59.914Z,16.08
2022-12-06T20:54:27.003Z,15.57
2022-12-06T20:56:54.338Z,15.77
2022-12-06T20:59:22.103Z,14.98
2022-12-06T21:01:50.056Z,15.10
2022-12-06T21:04:18.047Z,13.80
2022-12-06T21:06:47.702Z,14.13
2022-12-06T21:09:14.983Z,12.75
2022-12-06T21:11:42.326Z,13.13
2022-12-06T21:14:13.215Z,12.00
2022-12-06T21:16:51.157Z,11.63
2022-12-06T21:19:19.911Z,11.80
2022-12-06T21:21:53.359Z,12.30
2022-12-06T21:24:22.338Z,11.15
2022-12-06T21:26:49.892Z,11.82
2022-12-06T21:29:30.073Z,11.38
2022-12-06T21:32:00.905Z,11.15
2022-12-06T21:34:30.088Z,12.18
2022-12-06T21:36:57.354Z,12.27
2022-12-06T21:39:24.623Z,11.57
2022-12-06T21:41:53.182Z,11.65
2022-12-06T21:44:20.421Z,11.70
2022-12-06T21:46:54.630Z,10.90
2022-12-06T21:49:22.052Z,10.57
2022-12-06T21:51:49.347Z,11.13
2022-12-06T21:54:16.491Z,10.52
2022-12-06T21:56:43.697Z,9.90
2022-12-06T21:59:12.264Z,11.13
2022-12-06T22:01:39.514Z,10.48
2022-12-06T22:04:06.774Z,10.00
2022-12-06T22:06:36.321Z,10.45
2022-12-06T22:09:07.966Z,10.93
2022-12-06T22:11:35.490Z,10.57
2022-12-06T22:14:04.927Z,10.07
2022-12-06T22:16:32.419Z,9.30
2022-12-06T22:18:59.653Z,8.95
2022-12-06T22:21:32.462Z,9.90
2022-12-06T22:23:59.997Z,10.07
2022-12-06T22:26:29.873Z,8.70
2022-12-06T22:28:59.544Z,9.27
2022-12-06T22:31:33.513Z,9.40
2022-12-06T22:34:02.198Z,8.45
2022-12-06T22:36:30.065Z,8.60
2022-12-06T22:39:00.750Z,8.65
2022-12-06T22:41:31.957Z,8.95
2022-12-06T22:44:02.511Z,8.15
2022-12-06T22:46:31.551Z,8.73
2022-12-06T22:49:01.111Z,8.45
2022-12-06T22:51:34.438Z,9.15
2022-12-06T22:54:07.151Z,9.82
2022-12-06T22:56:36.847Z,10.23
2022-12-06T22:59:04.107Z,10.15
2022-12-06T23:01:34.724Z,8.73
2022-12-06T23:04:05.883Z,8.70
2022-12-06T23:06:34.921Z,8.88
2022-12-06T23:09:02.278Z,9.40
2022-12-06T23:11:32.390Z,8.93
2022-12-06T23:13:59.844Z,8.88
2022-12-06T23:16:31.101Z,10.57
2022-12-06T23:19:01.634Z,9.73
2022-12-06T23:21:35.469Z,10.40
2022-12-06T23:24:09.834Z,10.60
2022-12-06T23:26:41.498Z,10.73
2022-12-06T23:29:09.932Z,10.10
2022-12-06T23:31:41.138Z,10.68
2022-12-06T23:34:18.004Z,10.70
2022-12-06T23:36:48.081Z,10.32
2022-12-06T23:39:15.696Z,10.45
2022-12-06T23:41:43.046Z,9.88
2022-12-06T23:44:15.622Z,9.07
2022-12-06T23:46:46.748Z,9.00
2022-12-06T23:49:22.280Z,9.48
2022-12-06T23:51:52.545Z,8.80
2022-12-06T23:54:19.701Z,10.48
2022-12-06T23:56:49.306Z,9.32
2022-12-06T23:59:19.622Z,9.05
